Time;durP1;ratioP1;P1;durP2;ratioP2;P2;SDS_P1;SDS_P2;PMS_P1;PMS_P2;Temp;Humidity;BMP_temperature;BMP_pressure;BME280_temperature;BME280_humidity;BME280_pressure;Samples;Min_cycle;Max_cycle;Signal;HPM_P1;HPM_P2
2022/06/14 00:00:53;;;;;;;29.58;7.53;;;;;;;;;;5010985;28;20058;-66
2022/06/14 00:02:24;;;;;;;20.05;5.85;;;;;;;;;;5009920;28;20053;-66
2022/06/14 00:04:50;;;;;;;22.48;6.07;;;;;;;;;;5011242;28;20054;-66
2022/06/14 00:07:16;;;;;;;19.95;6.65;;;;;;;;;;5011418;28;20088;-66
2022/06/14 00:09:44;;;;;;;;;;;;;;;;;;5010173;28;20054;-66
2022/06/14 00:12:11;;;;;;;18.17;5.80;;;;;;;;;;5013040;28;19968;-66
2022/06/14 00:14:37;;;;;;;20.83;6.55;;;;;;;;;;5010949;28;20454;-66
2022/06/14 00:17:03;;;;;;;22.05;6.70;;;;;;;;;;5010862;28;20057;-67
2022/06/14 00:19:29;;;;;;;21.75;6.00;;;;;;;;;;5010495;28;20046;-66
2022/06/14 00:21:56;;;;;;;22.33;6.35;;;;;;;;;;5014307;28;20053;-66
2022/06/14 00:24:23;;;;;;;20.88;5.97;;;;;;;;;;5015213;28;20089;-66
2022/06/14 00:26:50;;;;;;;23.10;6.30;;;;;;;;;;5015188;28;20050;-66
2022/06/14 00:29:16;;;;;;;23.92;7.60;;;;;;;;;;5015127;28;20054;-66
2022/06/14 00:31:42;;;;;;;24.65;6.68;;;;;;;;;;5013412;28;20208;-66
2022/06/14 00:34:08;;;;;;;16.70;6.50;;;;;;;;;;5014569;28;20118;-66
2022/06/14 00:36:35;;;;;;;21.23;7.18;;;;;;;;;;5014852;28;20038;-66
2022/06/14 00:39:02;;;;;;;22.90;6.93;;;;;;;;;;5014772;28;20073;-66
2022/06/14 00:41:37;;;;;;;18.65;5.80;;;;;;;;;;5014083;28;20495;-66
2022/06/14 00:44:05;;;;;;;20.00;6.80;;;;;;;;;;5014664;28;20046;-66
2022/06/14 00:46:54;;;;;;;21.45;6.60;;;;;;;;;;5014482;28;20414;-66
2022/06/14 00:49:24;;;;;;;20.73;6.63;;;;;;;;;;5011288;28;20098;-66
2022/06/14 00:51:57;;;;;;;20.83;6.82;;;;;;;;;;5013809;28;20064;-66
2022/06/14 00:54:25;;;;;;;26.65;7.32;;;;;;;;;;5014185;28;20116;-66
2022/06/14 00:56:58;;;;;;;19.52;5.90;;;;;;;;;;5014521;28;20069;-66
2022/06/14 00:59:38;;;;;;;26.02;6.45;;;;;;;;;;5014239;28;20054;-66
2022/06/14 01:02:15;;;;;;;20.77;6.38;;;;;;;;;;5014140;28;20403;-66
2022/06/14 01:04:42;;;;;;;19.20;6.80;;;;;;;;;;5015106;28;20073;-66
2022/06/14 01:07:20;;;;;;;17.08;6.35;;;;;;;;;;5014723;28;20049;-66
2022/06/14 01:09:51;;;;;;;20.60;6.38;;;;;;;;;;5014397;28;20497;-66
2022/06/14 01:12:18;;;;;;;22.77;6.78;;;;;;;;;;5014396;28;20046;-66
2022/06/14 01:14:55;;;;;;;18.00;6.45;;;;;;;;;;5013697;28;20109;-66
2022/06/14 01:17:21;;;;;;;;;;;;;;;;;;5014356;28;20052;-66
2022/06/14 01:19:47;;;;;;;21.15;6.97;;;;;;;;;;5014122;28;19921;-66
2022/06/14 01:22:13;;;;;;;20.50;6.20;;;;;;;;;;5014038;28;20046;-66
2022/06/14 01:24:41;;;;;;;23.00;7.00;;;;;;;;;;5014276;28;20470;-66
2022/06/14 01:27:08;;;;;;;21.98;6.22;;;;;;;;;;5013446;28;20042;-67
2022/06/14 01:29:35;;;;;;;21.42;6.60;;;;;;;;;;5013280;28;20089;-66
2022/06/14 01:32:03;;;;;;;20.70;6.55;;;;;;;;;;5011471;28;20046;-66
2022/06/14 01:34:31;;;;;;;17.05;5.75;;;;;;;;;;5013508;28;20068;-66
2022/06/14 01:36:59;;;;;;;23.02;6.40;;;;;;;;;;5014084;28;20484;-66
2022/06/14 01:39:25;;;;;;;18.73;6.50;;;;;;;;;;5013075;28;20081;-66
2022/06/14 01:41:57;;;;;;;23.67;7.25;;;;;;;;;;5013744;28;20053;-66
2022/06/14 01:44:29;;;;;;;20.05;6.68;;;;;;;;;;5013942;28;20054;-66
2022/06/14 01:46:58;;;;;;;17.05;6.30;;;;;;;;;;5013340;28;20053;-66
2022/06/14 01:52:36;;;;;;;18.90;6.22;;;;;;;;;;5014514;28;20077;-66
2022/06/14 01:55:02;;;;;;;21.00;6.72;;;;;;;;;;5013349;28;20494;-66
2022/06/14 01:57:36;;;;;;;22.55;7.57;;;;;;;;;;5013026;28;20130;-66
2022/06/14 02:00:14;;;;;;;21.80;6.65;;;;;;;;;;5012995;28;20049;-66
2022/06/14 02:02:46;;;;;;;21.73;6.80;;;;;;;;;;5012746;28;20133;-67
2022/06/14 02:05:16;;;;;;;20.13;6.45;;;;;;;;;;5013416;28;20133;-66
2022/06/14 02:07:57;;;;;;;21.00;6.15;;;;;;;;;;5013111;28;20050;-67
2022/06/14 02:10:26;;;;;;;23.52;7.15;;;;;;;;;;5013813;28;20168;-67
2022/06/14 02:13:01;;;;;;;18.88;6.40;;;;;;;;;;5013729;28;20129;-66
2022/06/14 02:15:46;;;;;;;24.00;6.95;;;;;;;;;;5011658;28;20054;-67
2022/06/14 02:18:23;;;;;;;19.58;6.68;;;;;;;;;;5011085;28;20137;-66
2022/06/14 02:20:53;;;;;;;19.10;6.95;;;;;;;;;;5013201;28;20394;-66
2022/06/14 02:23:20;;;;;;;22.27;6.70;;;;;;;;;;5012840;28;20132;-66
2022/06/14 02:25:52;;;;;;;21.30;6.60;;;;;;;;;;5012594;28;20041;-66
2022/06/14 02:28:22;;;;;;;22.85;6.82;;;;;;;;;;5012064;28;20395;-66
2022/06/14 02:30:55;;;;;;;19.13;6.35;;;;;;;;;;5013032;28;20117;-66
2022/06/14 02:33:24;;;;;;;20.67;6.88;;;;;;;;;;5012446;28;20557;-66
2022/06/14 02:36:02;;;;;;;20.02;6.70;;;;;;;;;;5012640;28;20038;-66
2022/06/14 02:38:33;;;;;;;21.23;6.43;;;;;;;;;;5012697;28;20584;-66
2022/06/14 02:41:06;;;;;;;19.60;7.05;;;;;;;;;;5013581;28;20374;-67
2022/06/14 02:43:32;;;;;;;19.25;6.45;;;;;;;;;;5011445;28;20475;-66
2022/06/14 02:46:02;;;;;;;21.10;6.97;;;;;;;;;;5012217;28;20072;-66
2022/06/14 02:48:28;;;;;;;18.92;6.20;;;;;;;;;;5012339;28;20054;-66
2022/06/14 02:51:00;;;;;;;23.00;7.20;;;;;;;;;;5011609;28;20057;-66
2022/06/14 02:53:32;;;;;;;22.48;6.85;;;;;;;;;;5011901;28;20116;-66
2022/06/14 02:56:31;;;;;;;20.05;6.88;;;;;;;;;;5012166;28;20041;-66
2022/06/14 02:59:12;;;;;;;18.15;6.60;;;;;;;;;;4999213;28;20116;-65
2022/06/14 03:02:01;;;;;;;21.80;7.50;;;;;;;;;;5011691;28;20054;-66
2022/06/14 03:04:39;;;;;;;25.10;7.35;;;;;;;;;;5008305;28;20160;-67
2022/06/14 03:07:07;;;;;;;21.30;7.30;;;;;;;;;;5011543;28;20105;-67
2022/06/14 03:09:36;;;;;;;22.35;7.15;;;;;;;;;;5010176;28;20050;-65
2022/06/14 03:12:14;;;;;;;23.83;7.78;;;;;;;;;;5012128;28;20058;-67
2022/06/14 03:14:59;;;;;;;24.65;7.43;;;;;;;;;;5010689;28;20050;-67
2022/06/14 03:17:31;;;;;;;28.23;7.72;;;;;;;;;;5009640;28;20058;-66
2022/06/14 03:20:00;;;;;;;19.67;7.13;;;;;;;;;;5010997;28;20061;-66
2022/06/14 03:22:29;;;;;;;22.08;7.95;;;;;;;;;;5011282;28;20049;-66
2022/06/14 03:25:15;;;;;;;20.42;7.65;;;;;;;;;;5010839;28;20074;-66
2022/06/14 03:27:47;;;;;;;18.63;6.88;;;;;;;;;;5010742;28;20186;-66
2022/06/14 03:30:17;;;;;;;24.95;7.90;;;;;;;;;;5010996;28;20052;-66
2022/06/14 03:32:47;;;;;;;22.13;7.60;;;;;;;;;;5010382;28;20050;-66
2022/06/14 03:35:19;;;;;;;19.70;7.45;;;;;;;;;;5010650;28;20048;-66
2022/06/14 03:37:45;;;;;;;25.65;7.90;;;;;;;;;;5011468;28;20046;-66
2022/06/14 03:40:14;;;;;;;19.98;7.63;;;;;;;;;;5011808;28;20052;-66
2022/06/14 03:42:40;;;;;;;27.77;8.27;;;;;;;;;;5011181;28;20057;-66
2022/06/14 03:45:07;;;;;;;;;;;;;;;;;;5010659;28;20042;-66
2022/06/14 03:47:33;;;;;;;22.08;7.63;;;;;;;;;;5009928;28;19921;-67
2022/06/14 03:50:13;;;;;;;25.10;7.78;;;;;;;;;;5011046;28;20375;-66
2022/06/14 03:52:42;;;;;;;17.20;7.50;;;;;;;;;;5012030;28;20145;-67
2022/06/14 03:55:18;;;;;;;27.05;8.52;;;;;;;;;;5013673;28;20441;-66
2022/06/14 03:57:53;;;;;;;19.42;7.55;;;;;;;;;;5015329;28;20140;-66
2022/06/14 04:00:41;;;;;;;23.63;8.05;;;;;;;;;;5014630;28;20369;-67
2022/06/14 04:03:13;;;;;;;22.40;7.28;;;;;;;;;;5015517;28;20466;-66
2022/06/14 04:05:39;;;;;;;16.67;7.18;;;;;;;;;;5014838;28;20045;-67
2022/06/14 04:08:23;;;;;;;20.95;7.53;;;;;;;;;;5015510;28;20050;-67
2022/06/14 04:10:55;;;;;;;21.75;7.43;;;;;;;;;;5014962;28;20108;-67
2022/06/14 04:13:31;;;;;;;20.33;7.00;;;;;;;;;;5012430;28;20104;-67
2022/06/14 04:16:03;;;;;;;20.23;7.35;;;;;;;;;;5012300;28;20053;-67
2022/06/14 04:18:45;;;;;;;21.58;7.28;;;;;;;;;;5012683;28;20054;-66
2022/06/14 04:21:17;;;;;;;24.52;7.40;;;;;;;;;;5012712;28;20476;-66
2022/06/14 04:23:43;;;;;;;23.48;7.82;;;;;;;;;;5011073;28;20168;-67
2022/06/14 04:26:20;;;;;;;23.00;7.90;;;;;;;;;;5012007;28;20046;-66
2022/06/14 04:28:50;;;;;;;22.90;7.90;;;;;;;;;;5011988;28;20129;-67
2022/06/14 04:31:35;;;;;;;20.58;7.82;;;;;;;;;;5011955;28;20056;-67
2022/06/14 04:34:07;;;;;;;20.50;7.47;;;;;;;;;;5011862;28;20132;-67
2022/06/14 04:36:40;;;;;;;18.58;7.20;;;;;;;;;;5009875;28;20142;-67
2022/06/14 04:39:19;;;;;;;15.00;7.22;;;;;;;;;;5011477;28;20128;-67
2022/06/14 04:41:51;;;;;;;23.83;7.38;;;;;;;;;;5012864;28;20053;-67
2022/06/14 04:44:21;;;;;;;18.88;7.15;;;;;;;;;;5011015;28;20089;-67
2022/06/14 04:46:52;;;;;;;21.60;7.75;;;;;;;;;;5012022;28;20435;-67
2022/06/14 04:49:25;;;;;;;21.92;7.70;;;;;;;;;;5010620;28;20057;-67
2022/06/14 04:51:56;;;;;;;21.73;8.20;;;;;;;;;;5011235;28;20451;-67
2022/06/14 04:54:25;;;;;;;18.35;7.10;;;;;;;;;;5011942;28;20062;-67
2022/06/14 04:56:57;;;;;;;17.55;7.05;;;;;;;;;;5011176;28;20393;-68
2022/06/14 04:59:27;;;;;;;22.20;7.28;;;;;;;;;;5011320;28;20398;-67
2022/06/14 05:02:03;;;;;;;17.77;7.50;;;;;;;;;;5011706;28;20065;-67
2022/06/14 05:04:32;;;;;;;17.83;6.40;;;;;;;;;;5011858;28;20046;-67
2022/06/14 05:07:04;;;;;;;22.88;7.68;;;;;;;;;;5008944;28;20304;-68
2022/06/14 05:09:34;;;;;;;21.95;7.85;;;;;;;;;;5011478;28;20129;-67
2022/06/14 05:12:03;;;;;;;17.10;7.25;;;;;;;;;;5011377;28;20489;-67
2022/06/14 05:14:48;;;;;;;21.20;8.02;;;;;;;;;;5011169;28;20115;-67
2022/06/14 05:17:25;;;;;;;19.65;7.43;;;;;;;;;;5011279;28;20045;-67
2022/06/14 05:19:51;;;;;;;;;;;;;;;;;;5012040;28;20137;-68
2022/06/14 05:22:26;;;;;;;20.30;7.53;;;;;;;;;;5011659;28;19932;-69
2022/06/14 05:24:53;;;;;;;19.60;7.07;;;;;;;;;;5012310;28;20046;-68
2022/06/14 05:27:38;;;;;;;19.77;6.47;;;;;;;;;;5008667;28;20066;-67
2022/06/14 05:30:23;;;;;;;22.00;7.35;;;;;;;;;;5010920;28;20088;-67
2022/06/14 05:32:59;;;;;;;16.58;6.47;;;;;;;;;;5010558;28;20046;-67
2022/06/14 05:35:29;;;;;;;17.10;6.95;;;;;;;;;;5010301;28;20045;-67
2022/06/14 05:38:01;;;;;;;19.23;6.80;;;;;;;;;;5010350;28;20065;-67
2022/06/14 05:40:41;;;;;;;24.88;7.20;;;;;;;;;;5010420;28;20107;-67
2022/06/14 05:43:07;;;;;;;20.58;7.30;;;;;;;;;;5010366;28;20050;-67
2022/06/14 05:45:38;;;;;;;17.20;6.50;;;;;;;;;;5010452;28;20184;-67
2022/06/14 05:48:05;;;;;;;16.92;6.93;;;;;;;;;;5010694;28;20129;-67
2022/06/14 05:50:34;;;;;;;22.80;7.13;;;;;;;;;;5008885;28;20053;-67
2022/06/14 05:53:19;;;;;;;21.45;7.78;;;;;;;;;;5010722;28;20072;-67
2022/06/14 05:55:51;;;;;;;20.35;7.10;;;;;;;;;;5011559;28;20042;-67
2022/06/14 05:58:24;;;;;;;20.73;7.00;;;;;;;;;;5011433;28;20458;-67
2022/06/14 06:00:52;;;;;;;22.95;7.40;;;;;;;;;;5011216;28;20042;-67
2022/06/14 06:03:21;;;;;;;18.05;7.25;;;;;;;;;;5011695;28;20137;-67
2022/06/14 06:06:13;;;;;;;23.73;7.43;;;;;;;;;;5011718;28;20054;-67
2022/06/14 06:08:51;;;;;;;18.83;7.18;;;;;;;;;;5008127;28;20054;-67
2022/06/14 06:11:23;;;;;;;20.42;7.22;;;;;;;;;;5010386;28;20129;-67
2022/06/14 06:13:56;;;;;;;21.63;6.85;;;;;;;;;;5009904;28;20133;-67
2022/06/14 06:16:38;;;;;;;19.95;6.80;;;;;;;;;;5009778;28;20088;-67
2022/06/14 06:19:11;;;;;;;20.02;6.85;;;;;;;;;;5008698;28;20444;-68
2022/06/14 06:21:45;;;;;;;20.60;7.28;;;;;;;;;;5009884;28;20049;-67
2022/06/14 06:24:28;;;;;;;18.13;6.60;;;;;;;;;;5009827;28;20116;-68
2022/06/14 06:26:58;;;;;;;20.63;5.72;;;;;;;;;;5009183;28;20052;-67
2022/06/14 06:29:28;;;;;;;18.23;5.43;;;;;;;;;;5009186;28;20077;-67
2022/06/14 06:31:54;;;;;;;16.08;4.55;;;;;;;;;;5007261;28;20458;-67
2022/06/14 06:34:21;;;;;;;19.27;4.63;;;;;;;;;;5008424;28;20443;-69
2022/06/14 06:36:46;;;;;;;;;;;;;;;;;;5009101;28;20056;-67
2022/06/14 06:39:21;;;;;;;16.15;4.38;;;;;;;;;;5008826;28;19929;-68
2022/06/14 06:41:49;;;;;;;17.83;4.57;;;;;;;;;;5008625;28;20058;-67
2022/06/14 06:44:33;;;;;;;16.73;4.30;;;;;;;;;;5008928;28;20442;-68
2022/06/14 06:47:13;;;;;;;16.67;4.90;;;;;;;;;;5008977;28;20057;-67
2022/06/14 06:49:59;;;;;;;17.20;3.63;;;;;;;;;;5008774;28;20380;-68
2022/06/14 06:52:46;;;;;;;16.55;4.60;;;;;;;;;;5008391;28;20093;-67
2022/06/14 06:55:36;;;;;;;17.90;4.55;;;;;;;;;;5008928;28;20049;-68
2022/06/14 06:58:04;;;;;;;14.05;3.92;;;;;;;;;;5005094;28;20057;-67
2022/06/14 07:00:31;;;;;;;15.15;4.18;;;;;;;;;;5009204;28;20084;-68
2022/06/14 07:03:17;;;;;;;15.48;4.93;;;;;;;;;;5008824;28;20104;-68
2022/06/14 07:05:46;;;;;;;19.40;4.25;;;;;;;;;;5008295;28;20546;-67
2022/06/14 07:08:16;;;;;;;12.45;3.50;;;;;;;;;;5008349;28;20054;-67
2022/06/14 07:10:49;;;;;;;14.18;3.65;;;;;;;;;;5008486;28;20153;-70
2022/06/14 07:13:28;;;;;;;9.85;3.13;;;;;;;;;;5006889;28;20123;-68
2022/06/14 07:16:13;;;;;;;10.55;3.30;;;;;;;;;;5008405;28;20052;-67
2022/06/14 07:18:39;;;;;;;15.48;3.55;;;;;;;;;;5008167;28;20057;-67
2022/06/14 07:21:08;;;;;;;14.30;3.50;;;;;;;;;;5008249;28;20052;-67
2022/06/14 07:23:53;;;;;;;16.42;3.30;;;;;;;;;;5008209;28;20446;-67
2022/06/14 07:26:22;;;;;;;11.60;3.03;;;;;;;;;;5008418;28;20168;-67
2022/06/14 07:28:51;;;;;;;12.60;3.00;;;;;;;;;;5008177;28;20093;-67
2022/06/14 07:31:24;;;;;;;11.77;3.38;;;;;;;;;;5008094;28;20129;-66
2022/06/14 07:33:50;;;;;;;13.48;3.90;;;;;;;;;;5008132;28;20117;-67
2022/06/14 07:36:24;;;;;;;10.93;3.45;;;;;;;;;;5008202;28;20042;-67
2022/06/14 07:39:02;;;;;;;13.52;3.35;;;;;;;;;;5008157;28;20515;-67
2022/06/14 07:41:37;;;;;;;14.57;3.35;;;;;;;;;;5008609;28;20054;-67
2022/06/14 07:44:22;;;;;;;17.00;3.60;;;;;;;;;;5008409;28;20117;-67
2022/06/14 07:47:00;;;;;;;10.13;3.00;;;;;;;;;;5007900;28;20438;-66
2022/06/14 07:49:45;;;;;;;11.27;3.08;;;;;;;;;;5008512;28;20053;-66
2022/06/14 07:52:18;;;;;;;10.00;2.83;;;;;;;;;;5006203;28;20122;-66
2022/06/14 07:54:49;;;;;;;11.48;3.28;;;;;;;;;;5008018;28;20179;-67
2022/06/14 07:57:19;;;;;;;11.27;2.95;;;;;;;;;;5007953;28;20049;-66
2022/06/14 07:59:50;;;;;;;10.15;2.95;;;;;;;;;;5008062;28;20049;-67
2022/06/14 08:02:24;;;;;;;13.45;2.95;;;;;;;;;;5008644;28;20093;-67
2022/06/14 08:04:55;;;;;;;8.73;2.78;;;;;;;;;;5007573;28;20369;-67
2022/06/14 08:07:21;;;;;;;13.38;3.33;;;;;;;;;;5007963;28;20114;-66
2022/06/14 08:09:50;;;;;;;11.93;3.20;;;;;;;;;;5007807;28;20097;-66
2022/06/14 08:12:38;;;;;;;11.20;3.13;;;;;;;;;;5007894;28;20228;-67
2022/06/14 08:15:17;;;;;;;13.48;3.15;;;;;;;;;;5007680;28;20133;-66
2022/06/14 08:17:51;;;;;;;9.88;2.85;;;;;;;;;;5008021;28;20050;-68
2022/06/14 08:20:22;;;;;;;10.13;2.78;;;;;;;;;;5007835;28;20137;-67
2022/06/14 08:22:51;;;;;;;11.40;2.65;;;;;;;;;;5008061;28;20094;-66
2022/06/14 08:25:19;;;;;;;10.68;2.92;;;;;;;;;;5007654;28;20049;-68
2022/06/14 08:27:48;;;;;;;11.85;3.10;;;;;;;;;;5007571;28;20079;-69
2022/06/14 08:30:23;;;;;;;11.35;2.70;;;;;;;;;;5007516;28;20167;-69
2022/06/14 08:32:54;;;;;;;9.20;2.72;;;;;;;;;;5007434;28;20124;-68
2022/06/14 08:35:23;;;;;;;10.90;2.55;;;;;;;;;;5007693;28;20115;-68
2022/06/14 08:37:55;;;;;;;12.27;2.50;;;;;;;;;;5006030;28;20049;-67
2022/06/14 08:40:35;;;;;;;9.95;2.90;;;;;;;;;;5005948;28;20061;-67
2022/06/14 08:43:04;;;;;;;10.10;2.80;;;;;;;;;;5011188;28;20050;-67
2022/06/14 08:45:39;;;;;;;7.68;2.40;;;;;;;;;;5011885;28;20042;-68
2022/06/14 08:48:24;;;;;;;9.23;2.58;;;;;;;;;;5009570;28;20327;-68
2022/06/14 08:51:09;;;;;;;8.55;2.60;;;;;;;;;;5010821;28;20050;-67
2022/06/14 08:53:41;;;;;;;10.50;2.70;;;;;;;;;;5010790;28;20532;-68
2022/06/14 08:56:10;;;;;;;10.02;2.53;;;;;;;;;;5010750;28;20135;-68
2022/06/14 08:58:55;;;;;;;9.10;2.83;;;;;;;;;;5010870;28;20203;-69
2022/06/14 09:01:40;;;;;;;9.07;2.50;;;;;;;;;;5010660;28;20108;-68
2022/06/14 09:04:29;;;;;;;11.75;2.85;;;;;;;;;;5011185;28;20056;-68
2022/06/14 09:07:04;;;;;;;10.80;2.72;;;;;;;;;;5000522;28;20179;-68
2022/06/14 09:09:36;;;;;;;9.27;2.70;;;;;;;;;;5010502;28;20082;-67
2022/06/14 09:12:02;;;;;;;11.20;2.85;;;;;;;;;;5010514;28;20099;-67
2022/06/14 09:14:31;;;;;;;8.55;2.67;;;;;;;;;;5010225;28;20056;-68
2022/06/14 09:17:00;;;;;;;9.73;2.90;;;;;;;;;;5010470;28;20338;-67
2022/06/14 09:19:45;;;;;;;9.57;2.58;;;;;;;;;;5010298;28;20149;-68
2022/06/14 09:22:29;;;;;;;10.40;2.70;;;;;;;;;;5009917;28;20481;-67
2022/06/14 09:25:03;;;;;;;10.38;2.60;;;;;;;;;;5010258;28;20090;-75
2022/06/14 09:27:54;;;;;;;7.88;2.50;;;;;;;;;;5010082;28;20180;-75
2022/06/14 09:30:20;;;;;;;11.05;2.58;;;;;;;;;;5009832;28;20090;-75
2022/06/14 09:35:34;;;;;;;;;;;;;;;;;;5010250;28;20049;-75
2022/06/14 09:38:09;;;;;;;11.13;2.70;;;;;;;;;;5009164;28;20008;-75
2022/06/14 09:40:45;;;;;;;8.77;2.53;;;;;;;;;;5010569;28;20128;-76
2022/06/14 09:43:26;;;;;;;12.33;2.93;;;;;;;;;;5010669;28;20127;-74
2022/06/14 09:46:10;;;;;;;10.88;2.90;;;;;;;;;;5010020;28;20105;-75
2022/06/14 09:48:39;;;;;;;9.27;2.47;;;;;;;;;;5009685;28;20405;-76
2022/06/14 09:51:38;;;;;;;8.35;2.50;;;;;;;;;;5009469;28;20097;-77
2022/06/14 09:54:24;;;;;;;7.95;2.50;;;;;;;;;;4996947;28;20049;-68
2022/06/14 09:57:09;;;;;;;11.55;2.85;;;;;;;;;;5009787;28;20103;-68
2022/06/14 09:59:52;;;;;;;9.55;2.70;;;;;;;;;;5009622;28;20081;-67
2022/06/14 10:02:18;;;;;;;13.27;3.00;;;;;;;;;;5009290;28;20391;-68
2022/06/14 10:05:03;;;;;;;9.80;3.00;;;;;;;;;;5009758;28;20093;-68
2022/06/14 10:07:29;;;;;;;9.07;2.90;;;;;;;;;;5009290;28;20057;-67
2022/06/14 10:10:13;;;;;;;9.18;2.90;;;;;;;;;;5009502;28;20128;-67
2022/06/14 10:12:55;;;;;;;11.18;2.80;;;;;;;;;;5008991;28;20054;-68
2022/06/14 10:15:28;;;;;;;9.07;2.70;;;;;;;;;;5008772;28;20086;-70
2022/06/14 10:18:12;;;;;;;9.32;2.63;;;;;;;;;;5009089;28;20119;-68
2022/06/14 10:20:38;;;;;;;8.70;2.58;;;;;;;;;;5009188;28;20215;-69
2022/06/14 10:23:16;;;;;;;10.45;2.75;;;;;;;;;;5008928;28;20435;-68
2022/06/14 10:28:38;;;;;;;12.98;3.65;;;;;;;;;;5009144;28;20220;-69
2022/06/14 10:31:07;;;;;;;9.23;2.60;;;;;;;;;;5008997;28;20068;-68
2022/06/14 10:33:45;;;;;;;9.52;2.70;;;;;;;;;;5008736;28;20466;-69
2022/06/14 10:36:12;;;;;;;10.75;2.80;;;;;;;;;;5007501;28;20077;-68
2022/06/14 10:38:41;;;;;;;9.27;2.78;;;;;;;;;;5008974;28;20046;-70
2022/06/14 10:41:13;;;;;;;11.50;3.03;;;;;;;;;;5008730;28;20136;-68
2022/06/14 10:43:39;;;;;;;11.15;3.10;;;;;;;;;;5008516;28;20052;-68
2022/06/14 10:46:10;;;;;;;9.38;3.15;;;;;;;;;;5008369;28;20042;-68
2022/06/14 10:48:54;;;;;;;11.70;3.25;;;;;;;;;;5008688;28;20050;-69
2022/06/14 10:51:26;;;;;;;11.07;3.75;;;;;;;;;;5008411;28;20128;-67
2022/06/14 10:54:20;;;;;;;13.88;4.40;;;;;;;;;;5008701;28;20058;-68
2022/06/14 10:57:04;;;;;;;13.45;3.70;;;;;;;;;;4999845;28;20053;-68
2022/06/14 10:59:36;;;;;;;15.63;3.78;;;;;;;;;;5008279;28;20200;-68
2022/06/14 11:02:09;;;;;;;13.02;4.00;;;;;;;;;;5008482;28;20202;-68
2022/06/14 11:04:41;;;;;;;15.85;4.00;;;;;;;;;;5007905;28;20125;-69
2022/06/14 11:07:26;;;;;;;12.82;3.70;;;;;;;;;;5008045;28;20046;-69
2022/06/14 11:10:15;;;;;;;12.52;3.72;;;;;;;;;;5008317;28;20107;-69
2022/06/14 11:13:00;;;;;;;12.10;3.80;;;;;;;;;;5008028;28;20072;-68
2022/06/14 11:15:40;;;;;;;23.77;4.32;;;;;;;;;;5008094;28;20104;-70
2022/06/14 11:18:06;;;;;;;13.77;4.35;;;;;;;;;;5006454;28;20141;-68
2022/06/14 11:20:38;;;;;;;12.02;3.83;;;;;;;;;;5007652;28;20403;-69
2022/06/14 11:23:20;;;;;;;12.52;4.30;;;;;;;;;;5008021;28;20050;-68
2022/06/14 11:26:06;;;;;;;12.48;4.65;;;;;;;;;;5006265;28;20044;-69
2022/06/14 11:28:45;;;;;;;11.20;4.07;;;;;;;;;;5004887;28;20084;-68
2022/06/14 11:31:24;;;;;;;11.95;4.30;;;;;;;;;;5008325;28;20133;-69
2022/06/14 11:34:05;;;;;;;11.95;4.20;;;;;;;;;;5008240;28;20125;-68
2022/06/14 11:36:50;;;;;;;12.85;3.90;;;;;;;;;;5007787;28;20050;-68
2022/06/14 11:39:22;;;;;;;11.55;3.83;;;;;;;;;;5007669;28;20046;-68
2022/06/14 11:41:49;;;;;;;12.10;3.92;;;;;;;;;;5008180;28;20086;-68
2022/06/14 11:44:33;;;;;;;13.18;4.15;;;;;;;;;;5007452;28;20046;-69
2022/06/14 11:47:05;;;;;;;14.93;4.35;;;;;;;;;;5008004;28;20123;-68
2022/06/14 11:49:43;;;;;;;12.60;4.15;;;;;;;;;;5008361;28;20124;-69
2022/06/14 11:52:12;;;;;;;13.48;4.28;;;;;;;;;;5007805;28;20074;-69
2022/06/14 11:54:47;;;;;;;11.70;3.92;;;;;;;;;;5007927;28;20410;-69
2022/06/14 11:57:29;;;;;;;11.80;3.72;;;;;;;;;;5006534;28;20397;-68
2022/06/14 11:59:58;;;;;;;10.07;3.65;;;;;;;;;;5008024;28;20077;-69
2022/06/14 12:02:24;;;;;;;9.13;3.25;;;;;;;;;;5008374;28;20125;-68
2022/06/14 12:04:50;;;;;;;;;;;;;;;;;;5008981;28;20128;-69
2022/06/14 12:07:21;;;;;;;10.48;3.33;;;;;;;;;;5008894;28;19922;-68
2022/06/14 12:10:05;;;;;;;12.57;3.42;;;;;;;;;;5009512;28;20057;-69
2022/06/14 12:12:34;;;;;;;10.32;3.65;;;;;;;;;;5009190;28;20487;-69
2022/06/14 12:15:17;;;;;;;10.20;3.70;;;;;;;;;;5007893;28;20053;-68
2022/06/14 12:17:50;;;;;;;9.57;3.55;;;;;;;;;;5012927;28;20461;-68
2022/06/14 12:20:17;;;;;;;14.43;3.70;;;;;;;;;;5013584;28;20074;-68
2022/06/14 12:22:52;;;;;;;8.77;3.17;;;;;;;;;;5013915;28;20099;-68
2022/06/14 12:28:15;;;;;;;9.50;3.50;;;;;;;;;;5011969;28;20050;-69
2022/06/14 12:30:43;;;;;;;14.02;3.67;;;;;;;;;;5009775;28;20097;-69
2022/06/14 12:33:15;;;;;;;9.70;3.20;;;;;;;;;;5011138;28;20045;-69
2022/06/14 12:35:48;;;;;;;10.73;2.83;;;;;;;;;;5010997;28;20208;-68
2022/06/14 12:38:17;;;;;;;11.02;3.67;;;;;;;;;;5011398;28;20092;-68
2022/06/14 12:40:48;;;;;;;12.63;3.60;;;;;;;;;;5011054;28;20140;-68
2022/06/14 12:43:20;;;;;;;12.32;3.55;;;;;;;;;;5010859;28;20050;-68
2022/06/14 12:45:51;;;;;;;11.20;3.22;;;;;;;;;;5011583;28;20190;-68
2022/06/14 12:48:35;;;;;;;9.80;3.17;;;;;;;;;;5009284;28;20045;-68
2022/06/14 12:51:09;;;;;;;12.82;3.80;;;;;;;;;;5010881;28;20083;-68
2022/06/14 12:53:42;;;;;;;11.65;3.40;;;;;;;;;;5010603;28;20544;-68
2022/06/14 12:56:31;;;;;;;10.65;3.20;;;;;;;;;;5010693;28;20316;-68
2022/06/14 12:59:13;;;;;;;10.93;3.42;;;;;;;;;;5010765;28;20046;-68
2022/06/14 13:01:45;;;;;;;11.60;3.65;;;;;;;;;;5009383;28;20045;-69
2022/06/14 13:04:17;;;;;;;9.95;3.40;;;;;;;;;;5010813;28;20050;-69
2022/06/14 13:06:59;;;;;;;10.65;3.40;;;;;;;;;;5010616;28;20355;-69
2022/06/14 13:09:31;;;;;;;11.00;3.10;;;;;;;;;;5010415;28;20153;-67
2022/06/14 13:11:57;;;;;;;10.13;3.20;;;;;;;;;;5010994;28;20065;-69
2022/06/14 13:14:28;;;;;;;12.35;3.65;;;;;;;;;;5011945;28;20441;-68
2022/06/14 13:17:07;;;;;;;12.88;3.75;;;;;;;;;;5012078;28;20041;-68
2022/06/14 13:19:40;;;;;;;8.35;3.10;;;;;;;;;;5011870;28;20357;-68
2022/06/14 13:22:06;;;;;;;8.93;3.00;;;;;;;;;;5010744;28;20145;-68
2022/06/14 13:24:32;;;;;;;;;;;;;;;;;;5010968;28;20346;-67
2022/06/14 13:27:16;;;;;;;9.00;3.00;;;;;;;;;;5009443;28;20016;-67
2022/06/14 13:29:48;;;;;;;10.77;3.20;;;;;;;;;;5009886;28;20085;-67
2022/06/14 13:32:14;;;;;;;12.75;3.47;;;;;;;;;;5008911;28;20046;-68
2022/06/14 13:34:40;;;;;;;;;;;;;;;;;;5010281;28;20046;-68
2022/06/14 13:37:12;;;;;;;13.55;4.05;;;;;;;;;;5009986;28;20031;-68
2022/06/14 13:39:57;;;;;;;10.80;3.50;;;;;;;;;;5009906;28;20085;-68
2022/06/14 13:42:38;;;;;;;11.50;3.65;;;;;;;;;;5009978;28;20049;-68
2022/06/14 13:45:10;;;;;;;10.07;3.58;;;;;;;;;;5009875;28;20064;-68
2022/06/14 13:47:41;;;;;;;11.07;3.47;;;;;;;;;;5009327;28;20354;-67
2022/06/14 13:50:13;;;;;;;9.32;3.25;;;;;;;;;;5009770;28;20050;-68
2022/06/14 13:52:42;;;;;;;11.93;3.60;;;;;;;;;;5009729;28;20346;-67
2022/06/14 13:55:21;;;;;;;10.88;3.20;;;;;;;;;;5007428;28;20053;-67
2022/06/14 13:57:48;;;;;;;13.02;3.22;;;;;;;;;;5009567;28;20046;-68
2022/06/14 14:00:17;;;;;;;15.20;3.75;;;;;;;;;;5009424;28;20066;-68
2022/06/14 14:02:46;;;;;;;10.38;3.40;;;;;;;;;;5009536;28;20069;-67
2022/06/14 14:05:22;;;;;;;11.48;3.47;;;;;;;;;;5009450;28;20041;-68
2022/06/14 14:08:06;;;;;;;10.43;3.30;;;;;;;;;;5008987;28;20129;-66
2022/06/14 14:10:44;;;;;;;10.43;3.35;;;;;;;;;;5009193;28;20069;-67
2022/06/14 14:13:34;;;;;;;8.30;3.33;;;;;;;;;;5009308;28;20123;-67
2022/06/14 14:16:06;;;;;;;10.63;3.40;;;;;;;;;;4999996;28;20077;-67
2022/06/14 14:18:40;;;;;;;11.88;3.30;;;;;;;;;;5008136;28;20201;-68
2022/06/14 14:21:24;;;;;;;12.07;3.97;;;;;;;;;;5012039;28;20052;-69
2022/06/14 14:24:11;;;;;;;13.50;3.67;;;;;;;;;;5010450;28;20062;-68
2022/06/14 14:26:41;;;;;;;11.23;3.30;;;;;;;;;;5009984;28;20050;-68
2022/06/14 14:29:14;;;;;;;11.20;3.50;;;;;;;;;;5009103;28;20340;-68
2022/06/14 14:31:55;;;;;;;12.55;3.70;;;;;;;;;;5008704;28;20370;-68
2022/06/14 14:34:30;;;;;;;10.68;3.40;;;;;;;;;;5008957;28;20049;-67
2022/06/14 14:36:59;;;;;;;13.45;3.90;;;;;;;;;;5008404;28;20042;-67
2022/06/14 14:39:31;;;;;;;11.77;3.88;;;;;;;;;;5007931;28;20046;-68
2022/06/14 14:41:57;;;;;;;15.10;4.30;;;;;;;;;;5009618;28;20394;-68
2022/06/14 14:44:33;;;;;;;12.98;3.90;;;;;;;;;;5010008;28;20140;-68
2022/06/14 14:47:06;;;;;;;9.77;3.38;;;;;;;;;;5009574;28;20074;-68
2022/06/14 14:49:50;;;;;;;10.85;3.40;;;;;;;;;;5008051;28;20064;-68
2022/06/14 14:52:20;;;;;;;11.95;3.47;;;;;;;;;;5007926;28;20058;-67
2022/06/14 14:54:50;;;;;;;12.57;4.00;;;;;;;;;;5007957;28;20160;-67
2022/06/14 14:57:22;;;;;;;12.73;3.80;;;;;;;;;;5008073;28;20060;-68
2022/06/14 14:59:59;;;;;;;12.10;3.95;;;;;;;;;;5008037;28;20057;-67
2022/06/14 15:05:30;;;;;;;11.25;4.10;;;;;;;;;;5007948;28;20050;-68
2022/06/14 15:08:05;;;;;;;14.63;3.50;;;;;;;;;;5009783;28;20045;-68
2022/06/14 15:10:51;;;;;;;10.77;3.30;;;;;;;;;;5009461;28;20410;-69
2022/06/14 15:13:30;;;;;;;12.40;3.83;;;;;;;;;;5008354;28;20422;-68
2022/06/14 15:15:57;;;;;;;10.95;3.42;;;;;;;;;;5008548;28;20081;-68
2022/06/14 15:21:31;;;;;;;10.95;4.43;;;;;;;;;;4985014;28;20449;-67
2022/06/14 15:24:02;;;;;;;11.07;4.10;;;;;;;;;;5008578;28;20398;-68
2022/06/14 15:26:29;;;;;;;9.98;3.38;;;;;;;;;;5007916;28;20172;-68
2022/06/14 15:29:03;;;;;;;11.05;3.67;;;;;;;;;;5008287;28;20050;-67